ORU weather

Juan Mendoza Airport
Oruro, Oruro Department, Bolivia

Public forecast

Using degrees Celsius for public forecast. Weather courtesy of forecast.io.

METAR (pilot weather report)

Report is more than 6 hours old.

Retrieved 2019/03/21 18:00 UTC (13 hours ago):

SLOR 211800Z 18007KT 9999 SCT020 FEW023CB 19/00 Q1034

TAF (pilot weather forecast)

Forecast is more than 12 hours old.

Retrieved 2018/10/09 18:12 UTC (5 months ago):

TAF COR TAF SLOR 091600Z 0918/1018 22012KT 9999 SCT020 FEW023CB TX20/0920Z TN01/1010Z BECMG 0923/1001 04006KT NSC BECMG 1012/1014 32010KT